Portada
METAR-TAF:

METAR-TAF

Aeropuertos :

Mécheria, Argelia

latitud: 34-56N, longitud: 000-26W, altitud: 1149 m

Observación

El informe se hizo hace 35 minutos, a las 16:00 UTC
Viento 10 kt del norte
Temperatura 26°C
Humedad 15%
Presión 1024 hPa
Visibilidad 10 km o más
sin nubes por debajo de 1500 m y sin presencia de cumulonimbus.

METAR: DAAY 211600Z 01010KT CAVOK 26/M03 Q1024

Hora: 17:35 (16:35 UTC)

Pronóstico

El informe se hizo hace 2 horas y 35 minutos, a las 14:00 UTC
Pronóstico válido del 21 a las 15 UTC al 21 a las 24 UTC
Viento 12 kt del norte
Visibilidad 10 km o más
Escasas nubes a una altura de 2600 ft

TAF: DAAY 211400Z 2115/2124 36012KT 9999 FEW026

Observaciones y pronósticos meteorológicos de más de 4000 aeropuertos (mensajes METAR y TAF).

Los puntos amarillos y rojos representan las estaciones disponibles.

Ponga el ratón en el punto deseado para ver el nombre de la estación.

Haga clic para ver las observaciones y los pronósticos meteorológicos.

Para cambiar el mapa : haga clic en los botones verdes con una cruz de color negro para hacer un zoom, en el botón verde con un guión para alejar o en las flechas verdes para mapas adyacentes.


METAR-TAF: